Kezdőlap
METAR-TAF:

METAR-TAF

Repülőterek :

Grove, Oklahoma, Amerikai Egyesült Államok

földrajzi szélesség: 36-36-19N, földrajzi hosszúság: 094-44-19W, magasság: 254 m

Jelenlegi meteorológiai megfigyelések

A jelentés 23 perccel ezelõtt készült, 01:55 UTC
Szélcsend
Hőmérséklet 27°C
Páratartalom 66%
Légköri nyomás 1018 hPa
Látótávolság: 16.1 km
Derült ég

METAR: KGMJ 220155Z AUTO 00000KT 10SM CLR 27/20 A3005 RMK AO2 TSNO

Idő: 21:18 (02:18 UTC)


TAF: hiányzik

Meteorológiai megfigyelések és előrejelzések több, mint 4000 repülőtéren (METAR és TAF jelentéseket).

A térképen piros és sárga pontok jelzik az elérhető meteorológiai állomásokat.

Mozgassa az egeret a pont fölött, hogy megjelenjen az állomás neve.

Azután kattintson az időjárási megfigyelések és előrejelzések megtekintéséhez.

A térkép megváltoztatása: kattintson a fekete keresztel jelölt zöld gombra ráközelítéshez, a vonallal jelölt zöld gombra távolításhoz, vagy a zöld nyilakra a szomszédos térképek eléréséhez.


METAR-TAF: